Time;durP1;ratioP1;P1;durP2;ratioP2;P2;SDS_P1;SDS_P2;PMS_P1;PMS_P2;Temp;Humidity;BMP_temperature;BMP_pressure;BME280_temperature;BME280_humidity;BME280_pressure;Samples;Min_cycle;Max_cycle;Signal;HPM_P1;HPM_P2
2023/09/05 00:01:13;;;;;;;0.10;0.10;;;;;;;;;;6200670;23;20051;-88
2023/09/05 00:03:40;;;;;;;0.20;0.20;;;;;;;;;;6226049;23;20448;-88
2023/09/05 00:06:06;;;;;;;0.10;0.10;;;;;;;;;;6200657;23;20437;-88
2023/09/05 00:08:32;;;;;;;0.20;0.20;;;;;;;;;;6199806;23;20016;-88
2023/09/05 00:11:02;;;;;;;0.10;0.10;;;;;;;;;;6200717;23;20042;-88
2023/09/05 00:13:28;;;;;;;0.10;0.10;;;;;;;;;;6200156;23;20020;-89
2023/09/05 00:15:54;;;;;;;0.20;0.20;;;;;;;;;;6200062;23;20013;-87
2023/09/05 00:18:20;;;;;;;0.20;0.20;;;;;;;;;;6198164;23;20016;-88
2023/09/05 00:20:46;;;;;;;0.10;0.10;;;;;;;;;;6225427;23;20016;-88
2023/09/05 00:23:12;;;;;;;0.20;0.20;;;;;;;;;;6225151;23;20521;-89
2023/09/05 00:25:38;;;;;;;0.20;0.20;;;;;;;;;;6200487;23;20135;-88
2023/09/05 00:28:04;;;;;;;0.30;0.30;;;;;;;;;;6199901;23;20016;-88
2023/09/05 00:30:34;;;;;;;0.20;0.20;;;;;;;;;;6200227;23;20012;-88
2023/09/05 00:33:10;;;;;;;0.28;0.28;;;;;;;;;;6225604;23;20012;-88
2023/09/05 00:35:36;;;;;;;0.10;0.10;;;;;;;;;;6201158;23;20016;-89
2023/09/05 00:38:03;;;;;;;0.10;0.10;;;;;;;;;;6200818;23;20347;-89
2023/09/05 00:40:30;;;;;;;0.20;0.20;;;;;;;;;;6200398;23;20012;-89
2023/09/05 00:42:56;;;;;;;0.20;0.20;;;;;;;;;;6199437;23;20402;-89
2023/09/05 00:45:22;;;;;;;0.10;0.10;;;;;;;;;;6200686;23;20020;-89
2023/09/05 00:47:48;;;;;;;0.10;0.10;;;;;;;;;;6200338;23;20016;-89
2023/09/05 00:50:17;;;;;;;0.20;0.20;;;;;;;;;;6199840;23;20016;-89
2023/09/05 00:52:44;;;;;;;0.20;0.20;;;;;;;;;;6199903;23;20017;-88
2023/09/05 00:55:10;;;;;;;0.20;0.20;;;;;;;;;;6200206;23;20020;-88
2023/09/05 00:57:36;;;;;;;0.20;0.20;;;;;;;;;;6201724;23;20414;-88
2023/09/05 01:00:04;;;;;;;0.20;0.20;;;;;;;;;;6199196;23;20016;-88
2023/09/05 01:05:25;;;;;;;0.20;0.20;;;;;;;;;;6225474;23;20036;-87
2023/09/05 01:08:04;;;;;;;0.20;0.20;;;;;;;;;;6199852;23;20020;-86
2023/09/05 01:11:10;;;;;;;0.20;0.20;;;;;;;;;;6200567;23;20012;-87
2023/09/05 01:13:39;;;;;;;0.20;0.20;;;;;;;;;;6052903;23;20014;-88
2023/09/05 01:16:05;;;;;;;0.20;0.20;;;;;;;;;;6052594;23;20010;-88
2023/09/05 01:18:33;;;;;;;0.20;0.20;;;;;;;;;;6125705;23;20000;-88
2023/09/05 01:21:06;;;;;;;0.28;0.28;;;;;;;;;;6200164;23;20058;-87
2023/09/05 01:23:35;;;;;;;0.20;0.20;;;;;;;;;;6223875;23;20027;-88
2023/09/05 01:26:01;;;;;;;0.20;0.20;;;;;;;;;;6198818;23;20431;-86
2023/09/05 01:28:28;;;;;;;0.10;0.10;;;;;;;;;;6199137;23;20013;-87
2023/09/05 01:30:54;;;;;;;0.20;0.20;;;;;;;;;;6201451;23;20448;-87
2023/09/05 01:33:20;;;;;;;0.20;0.20;;;;;;;;;;6202509;23;20516;-88
2023/09/05 01:35:46;;;;;;;0.20;0.20;;;;;;;;;;6202785;23;20042;-88
2023/09/05 01:38:13;;;;;;;0.10;0.10;;;;;;;;;;6227648;23;20020;-88
2023/09/05 01:40:39;;;;;;;0.20;0.20;;;;;;;;;;6202584;23;20019;-87
2023/09/05 01:43:05;;;;;;;0.15;0.15;;;;;;;;;;6202210;23;20020;-88
2023/09/05 01:45:45;;;;;;;0.30;0.30;;;;;;;;;;6229111;23;20008;-88
2023/09/05 01:48:11;;;;;;;0.10;0.10;;;;;;;;;;6202307;23;20012;-88
2023/09/05 01:50:37;;;;;;;0.20;0.20;;;;;;;;;;6201979;23;20018;-88
2023/09/05 01:53:03;;;;;;;0.25;0.25;;;;;;;;;;6202599;23;20012;-88
2023/09/05 01:55:29;;;;;;;0.20;0.20;;;;;;;;;;6203105;23;20121;-88
2023/09/05 01:57:55;;;;;;;0.10;0.10;;;;;;;;;;6202860;23;20008;-88
2023/09/05 02:00:21;;;;;;;0.25;0.25;;;;;;;;;;6201856;23;20014;-88
2023/09/05 02:02:47;;;;;;;0.30;0.30;;;;;;;;;;6202351;23;20036;-87
2023/09/05 02:05:13;;;;;;;0.20;0.20;;;;;;;;;;6202267;23;20005;-87
2023/09/05 02:07:39;;;;;;;0.20;0.20;;;;;;;;;;6201826;23;20021;-86
2023/09/05 02:10:06;;;;;;;0.35;0.35;;;;;;;;;;6201402;23;20339;-87
2023/09/05 02:12:32;;;;;;;0.13;0.13;;;;;;;;;;6200122;23;20012;-88
2023/09/05 02:15:00;;;;;;;0.20;0.20;;;;;;;;;;6202239;23;20050;-88
2023/09/05 02:17:30;;;;;;;0.30;0.30;;;;;;;;;;6202460;23;20016;-89
2023/09/05 02:19:59;;;;;;;0.30;0.30;;;;;;;;;;6202654;23;20359;-88
2023/09/05 02:22:25;;;;;;;0.30;0.30;;;;;;;;;;6227176;23;20020;-87
2023/09/05 02:24:52;;;;;;;0.20;0.20;;;;;;;;;;6177985;23;20012;-88
2023/09/05 02:27:18;;;;;;;0.32;0.32;;;;;;;;;;6202766;23;20027;-88
2023/09/05 02:29:49;;;;;;;0.20;0.20;;;;;;;;;;6201717;23;20016;-87
2023/09/05 02:32:17;;;;;;;0.20;0.20;;;;;;;;;;6226091;23;20024;-89
2023/09/05 02:34:43;;;;;;;0.20;0.20;;;;;;;;;;6201810;23;20447;-88
2023/09/05 02:37:09;;;;;;;0.20;0.20;;;;;;;;;;6203340;23;20018;-88
2023/09/05 02:39:35;;;;;;;0.30;0.30;;;;;;;;;;6227495;23;20044;-88
2023/09/05 02:42:03;;;;;;;0.20;0.20;;;;;;;;;;6201775;23;20015;-87
2023/09/05 02:44:29;;;;;;;0.10;0.10;;;;;;;;;;6202944;23;20020;-89
2023/09/05 02:47:31;;;;;;;0.20;0.20;;;;;;;;;;6201936;23;20583;-88
2023/09/05 02:49:57;;;;;;;0.10;0.10;;;;;;;;;;6226997;23;20016;-88
2023/09/05 02:52:24;;;;;;;0.20;0.20;;;;;;;;;;6202122;23;20451;-88
2023/09/05 02:54:51;;;;;;;0.20;0.20;;;;;;;;;;6201993;23;20026;-88
2023/09/05 02:57:17;;;;;;;0.30;0.30;;;;;;;;;;6201323;23;20103;-88
2023/09/05 02:59:44;;;;;;;0.20;0.20;;;;;;;;;;6200417;23;20031;-87
2023/09/05 03:02:10;;;;;;;0.20;0.20;;;;;;;;;;6200132;23;20375;-88
2023/09/05 03:04:36;;;;;;;0.20;0.20;;;;;;;;;;6225237;23;20112;-87
2023/09/05 03:07:02;;;;;;;0.20;0.20;;;;;;;;;;6200412;23;20094;-88
2023/09/05 03:09:29;;;;;;;0.10;0.10;;;;;;;;;;6200946;23;20012;-88
2023/09/05 03:11:55;;;;;;;0.20;0.20;;;;;;;;;;6200652;23;20016;-89
2023/09/05 03:14:21;;;;;;;0.20;0.20;;;;;;;;;;6201871;23;20470;-89
2023/09/05 03:16:47;;;;;;;0.20;0.20;;;;;;;;;;6201486;23;20073;-88
2023/09/05 03:19:14;;;;;;;0.20;0.20;;;;;;;;;;6175429;23;20106;-89
2023/09/05 03:21:40;;;;;;;0.20;0.20;;;;;;;;;;6200249;23;20020;-89
2023/09/05 03:24:06;;;;;;;0.30;0.30;;;;;;;;;;6200887;23;20031;-89
2023/09/05 03:26:32;;;;;;;0.10;0.10;;;;;;;;;;6200749;23;20008;-90
2023/09/05 03:28:59;;;;;;;0.20;0.20;;;;;;;;;;6200550;23;20351;-90
2023/09/05 03:31:30;;;;;;;0.10;0.10;;;;;;;;;;6226185;23;20022;-89
2023/09/05 03:33:56;;;;;;;0.20;0.20;;;;;;;;;;6200533;23;20034;-89
2023/09/05 03:36:25;;;;;;;0.30;0.30;;;;;;;;;;6200687;23;20023;-89
2023/09/05 03:38:51;;;;;;;0.10;0.10;;;;;;;;;;6200572;23;20038;-90
2023/09/05 03:41:20;;;;;;;0.20;0.20;;;;;;;;;;6200368;23;20011;-88
2023/09/05 03:43:46;;;;;;;0.10;0.10;;;;;;;;;;6199664;23;20013;-88
2023/09/05 03:46:12;;;;;;;0.20;0.20;;;;;;;;;;6200489;23;20046;-88
2023/09/05 03:48:38;;;;;;;0.30;0.30;;;;;;;;;;6198373;23;20137;-88
2023/09/05 03:51:04;;;;;;;0.10;0.10;;;;;;;;;;6200127;23;20016;-89
2023/09/05 03:53:31;;;;;;;0.30;0.30;;;;;;;;;;6199459;23;20347;-89
2023/09/05 03:55:57;;;;;;;0.10;0.10;;;;;;;;;;6200822;23;20024;-89
2023/09/05 03:58:23;;;;;;;0.20;0.20;;;;;;;;;;6225929;23;20016;-89
2023/09/05 04:01:02;;;;;;;0.20;0.20;;;;;;;;;;6200545;23;20497;-89
2023/09/05 04:03:28;;;;;;;0.20;0.20;;;;;;;;;;6199009;23;20436;-89
2023/09/05 04:05:54;;;;;;;0.10;0.10;;;;;;;;;;6200700;23;20110;-89
2023/09/05 04:08:25;;;;;;;0.20;0.20;;;;;;;;;;6200881;23;20016;-87
2023/09/05 04:10:56;;;;;;;0.20;0.20;;;;;;;;;;6202169;23;20012;-88
2023/09/05 04:13:22;;;;;;;0.20;0.20;;;;;;;;;;6200829;23;20020;-89
2023/09/05 04:15:48;;;;;;;0.30;0.30;;;;;;;;;;6200701;23;20019;-89
2023/09/05 04:18:14;;;;;;;0.30;0.30;;;;;;;;;;6200149;23;20034;-89
2023/09/05 04:20:40;;;;;;;0.20;0.20;;;;;;;;;;6200504;23;20004;-88
2023/09/05 04:23:06;;;;;;;0.30;0.30;;;;;;;;;;6200842;23;20478;-89
2023/09/05 04:25:32;;;;;;;0.20;0.20;;;;;;;;;;6199125;23;20023;-88
2023/09/05 04:27:58;;;;;;;0.10;0.10;;;;;;;;;;6199591;23;20016;-89
2023/09/05 04:30:24;;;;;;;0.30;0.30;;;;;;;;;;6200642;23;20020;-88
2023/09/05 04:32:50;;;;;;;0.20;0.20;;;;;;;;;;6224210;23;20020;-89
2023/09/05 04:35:16;;;;;;;0.10;0.10;;;;;;;;;;6225262;23;20445;-89
2023/09/05 04:37:42;;;;;;;0.10;0.10;;;;;;;;;;6199768;23;20027;-89
2023/09/05 04:40:08;;;;;;;0.20;0.20;;;;;;;;;;6200371;23;20502;-89
2023/09/05 04:42:35;;;;;;;0.20;0.20;;;;;;;;;;6200908;23;20085;-89
2023/09/05 04:45:01;;;;;;;0.20;0.20;;;;;;;;;;6200339;23;20091;-89
2023/09/05 04:47:28;;;;;;;0.10;0.10;;;;;;;;;;6200896;23;20039;-89
2023/09/05 04:49:58;;;;;;;0.17;0.17;;;;;;;;;;6201123;23;20068;-88
2023/09/05 04:52:26;;;;;;;0.30;0.30;;;;;;;;;;6225373;23;20016;-88
2023/09/05 04:54:55;;;;;;;0.30;0.30;;;;;;;;;;6226440;23;20027;-89
2023/09/05 04:57:21;;;;;;;0.20;0.20;;;;;;;;;;6200661;23;20020;-88
2023/09/05 04:59:48;;;;;;;0.20;0.20;;;;;;;;;;6224726;23;20027;-88
2023/09/05 05:02:17;;;;;;;0.10;0.10;;;;;;;;;;6199561;23;20020;-88
2023/09/05 05:05:17;;;;;;;0.20;0.20;;;;;;;;;;6200532;23;20091;-87
2023/09/05 05:07:45;;;;;;;0.20;0.20;;;;;;;;;;6201429;23;20012;-88
2023/09/05 05:10:12;;;;;;;0.30;0.30;;;;;;;;;;6201119;23;20051;-87
2023/09/05 05:12:40;;;;;;;0.22;0.22;;;;;;;;;;6176920;23;20027;-89
2023/09/05 05:15:06;;;;;;;0.35;0.35;;;;;;;;;;6201995;23;20031;-89
2023/09/05 05:17:33;;;;;;;0.10;0.10;;;;;;;;;;6227246;23;20016;-89
2023/09/05 05:19:59;;;;;;;0.22;0.22;;;;;;;;;;6201737;23;20016;-89
2023/09/05 05:22:25;;;;;;;0.25;0.25;;;;;;;;;;6226394;23;20053;-89
2023/09/05 05:24:51;;;;;;;0.30;0.30;;;;;;;;;;6202344;23;20020;-89
2023/09/05 05:27:18;;;;;;;0.30;0.30;;;;;;;;;;6202430;23;20347;-91
2023/09/05 05:29:44;;;;;;;0.30;0.30;;;;;;;;;;6202385;23;20017;-89
2023/09/05 05:32:16;;;;;;;0.30;0.30;;;;;;;;;;6198481;23;20012;-90
2023/09/05 05:34:42;;;;;;;0.20;0.20;;;;;;;;;;6201438;23;20414;-88
2023/09/05 05:37:08;;;;;;;0.10;0.10;;;;;;;;;;6200484;23;20026;-89
2023/09/05 05:39:53;;;;;;;0.20;0.20;;;;;;;;;;6201848;23;20094;-89
2023/09/05 05:42:19;;;;;;;0.20;0.20;;;;;;;;;;6200926;23;20370;-89
2023/09/05 05:44:45;;;;;;;0.20;0.20;;;;;;;;;;6201458;23;20074;-89
2023/09/05 05:47:11;;;;;;;0.20;0.20;;;;;;;;;;6226820;23;20016;-89
2023/09/05 05:49:37;;;;;;;0.20;0.20;;;;;;;;;;6201834;23;20016;-89
2023/09/05 05:52:03;;;;;;;0.10;0.10;;;;;;;;;;6226567;23;20012;-89
2023/09/05 05:54:29;;;;;;;0.13;0.13;;;;;;;;;;6225684;23;20062;-88
2023/09/05 05:56:56;;;;;;;0.15;0.15;;;;;;;;;;6199489;23;20020;-89
2023/09/05 05:59:25;;;;;;;0.13;0.13;;;;;;;;;;6199938;23;20138;-90
2023/09/05 06:01:52;;;;;;;0.13;0.13;;;;;;;;;;6200370;23;20474;-89
2023/09/05 06:04:19;;;;;;;0.10;0.10;;;;;;;;;;6226988;23;20020;-90
2023/09/05 06:06:48;;;;;;;0.20;0.20;;;;;;;;;;6201186;23;20020;-88
2023/09/05 06:09:21;;;;;;;0.17;0.17;;;;;;;;;;6201167;23;20016;-90
2023/09/05 06:11:47;;;;;;;0.30;0.30;;;;;;;;;;6201081;23;20012;-90
2023/09/05 06:14:16;;;;;;;0.10;0.10;;;;;;;;;;6201712;23;20343;-90
2023/09/05 06:16:46;;;;;;;0.20;0.20;;;;;;;;;;6201732;23;20016;-90
2023/09/05 06:19:12;;;;;;;0.20;0.20;;;;;;;;;;6227785;23;20443;-90
2023/09/05 06:21:38;;;;;;;0.20;0.20;;;;;;;;;;6226878;22;20026;-89
2023/09/05 06:24:05;;;;;;;0.10;0.10;;;;;;;;;;6200510;23;20099;-90
2023/09/05 06:26:31;;;;;;;0.20;0.20;;;;;;;;;;6201388;23;20047;-90
2023/09/05 06:28:57;;;;;;;0.25;0.25;;;;;;;;;;6198064;23;20020;-86
2023/09/05 06:31:23;;;;;;;0.20;0.20;;;;;;;;;;6224561;23;20024;-86
2023/09/05 06:33:49;;;;;;;0.10;0.10;;;;;;;;;;6199930;23;20481;-87
2023/09/05 06:36:16;;;;;;;0.13;0.13;;;;;;;;;;6200140;23;20004;-86
2023/09/05 06:38:42;;;;;;;0.10;0.10;;;;;;;;;;6198562;23;20020;-85
2023/09/05 06:41:09;;;;;;;0.20;0.20;;;;;;;;;;6223810;23;20363;-86
2023/09/05 06:43:35;;;;;;;0.10;0.10;;;;;;;;;;6199561;23;20027;-87
2023/09/05 06:46:04;;;;;;;0.30;0.30;;;;;;;;;;6199866;23;20008;-87
2023/09/05 06:48:30;;;;;;;0.25;0.25;;;;;;;;;;6200191;23;20091;-87
2023/09/05 06:50:57;;;;;;;0.20;0.20;;;;;;;;;;6200486;23;20024;-87
2023/09/05 06:53:30;;;;;;;0.20;0.20;;;;;;;;;;6225140;23;20020;-87
2023/09/05 06:55:56;;;;;;;0.30;0.30;;;;;;;;;;6201669;23;20028;-88
2023/09/05 06:58:23;;;;;;;0.20;0.20;;;;;;;;;;6201015;23;20027;-86
2023/09/05 07:00:54;;;;;;;0.10;0.10;;;;;;;;;;6201422;23;20020;-87
2023/09/05 07:03:24;;;;;;;0.20;0.20;;;;;;;;;;6201426;23;20020;-87
2023/09/05 07:05:56;;;;;;;0.10;0.10;;;;;;;;;;6201490;23;20039;-88
2023/09/05 07:08:22;;;;;;;0.15;0.15;;;;;;;;;;6200287;23;20066;-87
2023/09/05 07:10:48;;;;;;;0.40;0.40;;;;;;;;;;6201791;23;20378;-87
2023/09/05 07:13:15;;;;;;;0.35;0.35;;;;;;;;;;6200316;23;20016;-87
2023/09/05 07:15:43;;;;;;;0.10;0.10;;;;;;;;;;6201522;23;20390;-87
2023/09/05 07:18:10;;;;;;;0.10;0.10;;;;;;;;;;6202311;23;20050;-89
2023/09/05 07:20:36;;;;;;;0.00;0.00;;;;;;;;;;6202644;23;20091;-88
2023/09/05 07:23:02;;;;;;;0.20;0.20;;;;;;;;;;6225579;23;20031;-88
2023/09/05 07:25:28;;;;;;;0.20;0.20;;;;;;;;;;6225030;23;20012;-87
2023/09/05 07:28:01;;;;;;;0.13;0.13;;;;;;;;;;6198572;23;20098;-85
2023/09/05 07:30:27;;;;;;;0.20;0.20;;;;;;;;;;6225827;23;20019;-84
2023/09/05 07:32:53;;;;;;;0.25;0.25;;;;;;;;;;6224244;23;20016;-86
2023/09/05 07:35:19;;;;;;;0.10;0.10;;;;;;;;;;6199736;23;20455;-84
2023/09/05 07:37:45;;;;;;;0.20;0.20;;;;;;;;;;6200322;23;20066;-86
2023/09/05 07:40:14;;;;;;;0.30;0.30;;;;;;;;;;6200621;23;20482;-88
2023/09/05 07:42:41;;;;;;;0.20;0.20;;;;;;;;;;6224763;23;20020;-86
2023/09/05 07:45:08;;;;;;;0.10;0.10;;;;;;;;;;6200845;23;20023;-87
2023/09/05 07:47:34;;;;;;;0.20;0.20;;;;;;;;;;6201515;23;20324;-90
2023/09/05 07:50:00;;;;;;;0.13;0.13;;;;;;;;;;6201572;23;20027;-86
2023/09/05 07:52:26;;;;;;;0.17;0.17;;;;;;;;;;6199671;23;20058;-86
2023/09/05 07:54:52;;;;;;;0.10;0.10;;;;;;;;;;6226792;23;20023;-87
2023/09/05 07:57:18;;;;;;;0.10;0.10;;;;;;;;;;6202521;23;20012;-88
2023/09/05 07:59:45;;;;;;;0.10;0.10;;;;;;;;;;6201257;23;20016;-87
2023/09/05 08:02:11;;;;;;;0.20;0.20;;;;;;;;;;6201176;23;20050;-89
2023/09/05 08:04:38;;;;;;;0.20;0.20;;;;;;;;;;6201528;23;20000;-89
2023/09/05 08:07:06;;;;;;;0.20;0.20;;;;;;;;;;6200799;23;20066;-88
2023/09/05 08:09:32;;;;;;;0.10;0.10;;;;;;;;;;6200117;23;20026;-88
2023/09/05 08:11:58;;;;;;;0.00;0.00;;;;;;;;;;6225493;23;20482;-89
2023/09/05 08:14:25;;;;;;;0.20;0.20;;;;;;;;;;6202149;23;20095;-91
2023/09/05 08:16:52;;;;;;;0.20;0.20;;;;;;;;;;6201609;23;20020;-88
2023/09/05 08:19:18;;;;;;;0.10;0.10;;;;;;;;;;6201088;23;20020;-89
2023/09/05 08:21:44;;;;;;;0.20;0.20;;;;;;;;;;6201814;23;20024;-89
2023/09/05 08:24:10;;;;;;;0.00;0.00;;;;;;;;;;6201106;23;20011;-88
2023/09/05 08:26:36;;;;;;;0.10;0.10;;;;;;;;;;6201109;23;20020;-89
2023/09/05 08:29:03;;;;;;;0.15;0.15;;;;;;;;;;6201261;23;20035;-88
2023/09/05 08:31:30;;;;;;;0.20;0.20;;;;;;;;;;6199333;23;20091;-89
2023/09/05 08:33:57;;;;;;;0.30;0.30;;;;;;;;;;6225594;23;20020;-90
2023/09/05 08:36:24;;;;;;;0.10;0.10;;;;;;;;;;6201330;23;20027;-89
2023/09/05 08:38:50;;;;;;;0.13;0.13;;;;;;;;;;6202177;23;20068;-89
2023/09/05 08:41:17;;;;;;;0.03;0.03;;;;;;;;;;6229583;23;20358;-90
2023/09/05 08:43:45;;;;;;;0.00;0.00;;;;;;;;;;6203872;23;20016;-90
2023/09/05 08:46:11;;;;;;;0.22;0.22;;;;;;;;;;6203189;22;20004;-88
2023/09/05 08:48:37;;;;;;;0.05;0.05;;;;;;;;;;6203126;23;20087;-91
2023/09/05 08:51:05;;;;;;;0.10;0.10;;;;;;;;;;6202556;23;20023;-88
2023/09/05 08:53:36;;;;;;;0.10;0.10;;;;;;;;;;6203259;23;20023;-88
2023/09/05 08:56:03;;;;;;;0.00;0.00;;;;;;;;;;6202903;23;20105;-89
2023/09/05 08:58:29;;;;;;;0.13;0.13;;;;;;;;;;6203578;23;20074;-89
2023/09/05 09:00:55;;;;;;;0.35;0.35;;;;;;;;;;6203878;23;20020;-89
2023/09/05 09:03:22;;;;;;;0.10;0.10;;;;;;;;;;6203135;23;20013;-91
2023/09/05 09:05:49;;;;;;;0.00;0.00;;;;;;;;;;6203727;23;20019;-93
2023/09/05 09:08:19;;;;;;;0.20;0.20;;;;;;;;;;6230282;22;20020;-93
2023/09/05 09:11:04;;;;;;;0.10;0.10;;;;;;;;;;6205127;23;20043;-93
2023/09/05 09:13:38;;;;;;;0.00;0.00;;;;;;;;;;6228118;22;20457;-89
2023/09/05 09:16:04;;;;;;;;;;;;;;;;;;6202940;23;20024;-90
2023/09/05 09:18:34;;;;;;;0.13;0.13;;;;;;;;;;6203273;23;19962;-90
2023/09/05 09:21:25;;;;;;;0.00;0.00;;;;;;;;;;6202392;23;20351;-90
2023/09/05 09:23:51;;;;;;;0.00;0.00;;;;;;;;;;6204120;23;20609;-90
2023/09/05 09:26:17;;;;;;;0.00;0.00;;;;;;;;;;6204623;23;20115;-91
2023/09/05 09:28:45;;;;;;;0.00;0.00;;;;;;;;;;6203475;23;20020;-90
2023/09/05 09:31:12;;;;;;;0.10;0.10;;;;;;;;;;6203091;23;20024;-91
2023/09/05 09:33:39;;;;;;;0.30;0.30;;;;;;;;;;6203845;23;20028;-91
2023/09/05 09:36:05;;;;;;;0.10;0.10;;;;;;;;;;6203041;23;20020;-90
2023/09/05 09:38:31;;;;;;;0.10;0.10;;;;;;;;;;6201513;23;20035;-90
2023/09/05 09:41:01;;;;;;;0.10;0.10;;;;;;;;;;6202544;23;20077;-90
2023/09/05 09:43:27;;;;;;;0.00;0.00;;;;;;;;;;6202441;23;20064;-90
2023/09/05 09:45:54;;;;;;;0.00;0.00;;;;;;;;;;6202038;23;20007;-91
2023/09/05 09:48:22;;;;;;;0.10;0.10;;;;;;;;;;6203772;22;20019;-89
2023/09/05 09:50:48;;;;;;;0.10;0.10;;;;;;;;;;6200933;23;20012;-90
2023/09/05 09:53:18;;;;;;;0.10;0.10;;;;;;;;;;6201160;23;20019;-90
2023/09/05 09:55:44;;;;;;;0.00;0.00;;;;;;;;;;6228187;23;20019;-90
2023/09/05 09:58:14;;;;;;;0.20;0.20;;;;;;;;;;6203492;23;20024;-90
2023/09/05 10:00:47;;;;;;;0.00;0.00;;;;;;;;;;6203190;23;20071;-90
2023/09/05 10:03:13;;;;;;;0.10;0.10;;;;;;;;;;6202241;23;20020;-90
2023/09/05 10:05:41;;;;;;;0.20;0.20;;;;;;;;;;6203686;23;20463;-90
2023/09/05 10:08:11;;;;;;;0.10;0.10;;;;;;;;;;6228258;23;20020;-90
2023/09/05 10:10:40;;;;;;;0.10;0.10;;;;;;;;;;6203924;23;20016;-90
2023/09/05 10:13:10;;;;;;;0.08;0.08;;;;;;;;;;6203114;23;20024;-91
2023/09/05 10:15:36;;;;;;;0.05;0.05;;;;;;;;;;6203837;23;20024;-90
2023/09/05 10:18:26;;;;;;;0.00;0.00;;;;;;;;;;6203348;23;20039;-90
2023/09/05 10:20:54;;;;;;;0.20;0.20;;;;;;;;;;6203196;23;20024;-90
2023/09/05 10:23:23;;;;;;;0.00;0.00;;;;;;;;;;6202780;23;20354;-90
2023/09/05 10:25:50;;;;;;;0.10;0.10;;;;;;;;;;6202949;23;20056;-90
2023/09/05 10:28:16;;;;;;;0.10;0.10;;;;;;;;;;6202254;23;20024;-90
2023/09/05 10:30:43;;;;;;;0.10;0.10;;;;;;;;;;6227889;23;20023;-90
2023/09/05 10:33:10;;;;;;;0.00;0.00;;;;;;;;;;6203416;23;20020;-91
2023/09/05 10:35:36;;;;;;;0.10;0.10;;;;;;;;;;6203043;23;20020;-90
2023/09/05 10:38:04;;;;;;;0.10;0.10;;;;;;;;;;6202821;23;20486;-89
2023/09/05 10:40:35;;;;;;;0.20;0.20;;;;;;;;;;6202361;23;20099;-90
2023/09/05 10:43:01;;;;;;;0.10;0.10;;;;;;;;;;6202271;23;20024;-90
2023/09/05 10:45:28;;;;;;;0.00;0.00;;;;;;;;;;6201557;23;20023;-91
2023/09/05 10:48:00;;;;;;;0.10;0.10;;;;;;;;;;6201368;23;20055;-90
2023/09/05 10:50:26;;;;;;;0.00;0.00;;;;;;;;;;6201657;23;20062;-89
2023/09/05 10:53:10;;;;;;;0.10;0.10;;;;;;;;;;6201577;23;20467;-91
2023/09/05 10:55:44;;;;;;;0.05;0.05;;;;;;;;;;6201623;23;20012;-91
2023/09/05 10:58:29;;;;;;;0.10;0.10;;;;;;;;;;6200585;23;20023;-88
2023/09/05 11:00:55;;;;;;;0.17;0.17;;;;;;;;;;6202275;23;20255;-90
2023/09/05 11:03:21;;;;;;;0.10;0.10;;;;;;;;;;6201389;23;20012;-90
2023/09/05 11:05:47;;;;;;;0.10;0.10;;;;;;;;;;6202398;23;20038;-89
2023/09/05 11:08:20;;;;;;;0.10;0.10;;;;;;;;;;6202596;23;20096;-90
2023/09/05 11:10:46;;;;;;;0.00;0.00;;;;;;;;;;6201617;23;20020;-90
2023/09/05 11:13:14;;;;;;;0.03;0.03;;;;;;;;;;6227009;23;20016;-89
2023/09/05 11:15:43;;;;;;;0.10;0.10;;;;;;;;;;6201264;23;20012;-89
2023/09/05 11:18:17;;;;;;;0.10;0.10;;;;;;;;;;6202000;23;20026;-89
2023/09/05 11:20:46;;;;;;;0.08;0.08;;;;;;;;;;6200517;23;20463;-89
2023/09/05 11:23:21;;;;;;;0.00;0.00;;;;;;;;;;6199226;23;20023;-89
2023/09/05 11:26:02;;;;;;;0.20;0.20;;;;;;;;;;6199375;23;20016;-90
2023/09/05 11:28:28;;;;;;;0.10;0.10;;;;;;;;;;6201065;23;20012;-88
2023/09/05 11:30:57;;;;;;;0.17;0.17;;;;;;;;;;6199640;23;20075;-87
2023/09/05 11:33:23;;;;;;;0.10;0.10;;;;;;;;;;6200273;23;20091;-86
2023/09/05 11:35:49;;;;;;;0.20;0.20;;;;;;;;;;6200864;23;20087;-89
2023/09/05 11:38:16;;;;;;;0.20;0.20;;;;;;;;;;6226935;22;20020;-89
2023/09/05 11:40:52;;;;;;;0.10;0.10;;;;;;;;;;6202844;23;20074;-88
2023/09/05 11:43:18;;;;;;;0.00;0.00;;;;;;;;;;6201453;23;20022;-89
2023/09/05 11:45:46;;;;;;;0.10;0.10;;;;;;;;;;6227110;23;20016;-91
2023/09/05 11:48:14;;;;;;;0.08;0.08;;;;;;;;;;6202282;23;20020;-90
2023/09/05 11:50:41;;;;;;;0.10;0.10;;;;;;;;;;6226987;23;20027;-89
2023/09/05 11:53:10;;;;;;;0.10;0.10;;;;;;;;;;6200484;23;19996;-88
2023/09/05 11:55:36;;;;;;;0.00;0.00;;;;;;;;;;6200614;23;20016;-88
2023/09/05 11:58:05;;;;;;;0.10;0.10;;;;;;;;;;6201678;23;20017;-85
2023/09/05 12:00:32;;;;;;;0.10;0.10;;;;;;;;;;6200726;23;20035;-89
2023/09/05 12:03:00;;;;;;;0.00;0.00;;;;;;;;;;6199906;23;20019;-87
2023/09/05 12:05:28;;;;;;;0.13;0.13;;;;;;;;;;6201943;23;20066;-89
2023/09/05 12:07:54;;;;;;;0.08;0.08;;;;;;;;;;6201479;23;20024;-89
2023/09/05 12:10:21;;;;;;;0.00;0.00;;;;;;;;;;6201452;23;20016;-88
2023/09/05 12:12:54;;;;;;;0.10;0.10;;;;;;;;;;6227315;23;20016;-89
2023/09/05 12:15:33;;;;;;;0.10;0.10;;;;;;;;;;6201208;23;20020;-89
2023/09/05 12:18:00;;;;;;;0.10;0.10;;;;;;;;;;6200855;23;20020;-88
2023/09/05 12:20:27;;;;;;;0.08;0.08;;;;;;;;;;6225533;23;20024;-87
2023/09/05 12:22:53;;;;;;;0.00;0.00;;;;;;;;;;6225178;23;20325;-89
2023/09/05 12:25:21;;;;;;;0.10;0.10;;;;;;;;;;6201778;23;20024;-88
2023/09/05 12:27:48;;;;;;;0.00;0.00;;;;;;;;;;6227381;23;20015;-88
2023/09/05 12:30:25;;;;;;;0.10;0.10;;;;;;;;;;6225607;23;20019;-87
2023/09/05 12:32:54;;;;;;;0.10;0.10;;;;;;;;;;6199436;23;20012;-86
2023/09/05 12:35:20;;;;;;;0.10;0.10;;;;;;;;;;6200368;23;20070;-86
2023/09/05 12:37:46;;;;;;;0.00;0.00;;;;;;;;;;6223876;23;20052;-88
2023/09/05 12:40:15;;;;;;;0.00;0.00;;;;;;;;;;6200234;23;20332;-88
2023/09/05 12:42:44;;;;;;;0.03;0.03;;;;;;;;;;6199731;23;20398;-87
2023/09/05 12:45:10;;;;;;;0.00;0.00;;;;;;;;;;6200579;23;20021;-91
2023/09/05 12:47:36;;;;;;;0.20;0.20;;;;;;;;;;6198900;23;20028;-89
2023/09/05 12:50:02;;;;;;;0.08;0.08;;;;;;;;;;6200941;23;20020;-90
2023/09/05 12:52:29;;;;;;;0.10;0.10;;;;;;;;;;6199630;23;20111;-87
2023/09/05 12:54:57;;;;;;;0.10;0.10;;;;;;;;;;6200164;23;20518;-89
2023/09/05 12:57:48;;;;;;;0.17;0.17;;;;;;;;;;6200208;23;20027;-88
2023/09/05 13:00:15;;;;;;;0.00;0.00;;;;;;;;;;6199954;23;20437;-88
2023/09/05 13:02:43;;;;;;;0.10;0.10;;;;;;;;;;6198758;23;20073;-87
2023/09/05 13:05:10;;;;;;;0.10;0.10;;;;;;;;;;6199267;23;20100;-87
2023/09/05 13:07:37;;;;;;;0.08;0.08;;;;;;;;;;6199136;23;20030;-87
2023/09/05 13:10:03;;;;;;;0.15;0.15;;;;;;;;;;6224259;23;20012;-87
2023/09/05 13:12:29;;;;;;;0.00;0.00;;;;;;;;;;6223393;23;20061;-87
2023/09/05 13:14:55;;;;;;;0.00;0.00;;;;;;;;;;6197399;23;20027;-86
2023/09/05 13:17:22;;;;;;;0.10;0.10;;;;;;;;;;6199096;23;20048;-88
2023/09/05 13:19:48;;;;;;;0.10;0.10;;;;;;;;;;6199742;23;20016;-88
2023/09/05 13:22:17;;;;;;;0.03;0.03;;;;;;;;;;6199357;23;20024;-87
2023/09/05 13:24:43;;;;;;;0.00;0.00;;;;;;;;;;6199124;23;20061;-88
2023/09/05 13:27:09;;;;;;;0.00;0.00;;;;;;;;;;6200683;23;20012;-89
2023/09/05 13:29:35;;;;;;;0.00;0.00;;;;;;;;;;6201498;23;20012;-90
2023/09/05 13:32:05;;;;;;;0.00;0.00;;;;;;;;;;6226427;23;20016;-92
2023/09/05 13:34:31;;;;;;;0.17;0.17;;;;;;;;;;6201987;23;20020;-90
2023/09/05 13:36:57;;;;;;;0.00;0.00;;;;;;;;;;6201303;23;20031;-89
2023/09/05 13:39:26;;;;;;;0.00;0.00;;;;;;;;;;6199932;23;20012;-93
2023/09/05 13:41:52;;;;;;;0.00;0.00;;;;;;;;;;6203406;23;20102;-91
2023/09/05 13:44:18;;;;;;;0.10;0.10;;;;;;;;;;6203105;23;20012;-91
2023/09/05 13:46:50;;;;;;;0.10;0.10;;;;;;;;;;6202606;23;20016;-90
2023/09/05 13:49:17;;;;;;;0.10;0.10;;;;;;;;;;6201245;23;20012;-91
2023/09/05 13:51:43;;;;;;;0.10;0.10;;;;;;;;;;6226077;23;20004;-91
2023/09/05 13:54:09;;;;;;;0.10;0.10;;;;;;;;;;6227510;23;20022;-92
2023/09/05 13:56:35;;;;;;;0.00;0.00;;;;;;;;;;6202038;23;20020;-92
2023/09/05 13:59:01;;;;;;;0.20;0.20;;;;;;;;;;6202486;23;20019;-91
2023/09/05 14:01:44;;;;;;;0.00;0.00;;;;;;;;;;6228296;23;20004;-88
2023/09/05 14:04:10;;;;;;;0.00;0.00;;;;;;;;;;6201211;23;20109;-88
2023/09/05 14:06:37;;;;;;;0.00;0.00;;;;;;;;;;6200808;23;20020;-89
2023/09/05 14:09:04;;;;;;;0.10;0.10;;;;;;;;;;6200957;23;20060;-88
2023/09/05 14:11:46;;;;;;;0.10;0.10;;;;;;;;;;6200627;23;20016;-87
2023/09/05 14:14:15;;;;;;;0.10;0.10;;;;;;;;;;6201144;23;20030;-87
2023/09/05 14:16:41;;;;;;;0.10;0.10;;;;;;;;;;6199980;23;20012;-85
2023/09/05 14:19:08;;;;;;;0.10;0.10;;;;;;;;;;6198760;23;20016;-87
2023/09/05 14:21:34;;;;;;;0.10;0.10;;;;;;;;;;6198845;23;20420;-86
2023/09/05 14:24:01;;;;;;;0.10;0.10;;;;;;;;;;6199877;23;20020;-86
2023/09/05 14:26:29;;;;;;;0.08;0.08;;;;;;;;;;6199595;23;20016;-86
2023/09/05 14:28:55;;;;;;;0.00;0.00;;;;;;;;;;6199579;23;20012;-87
2023/09/05 14:31:21;;;;;;;0.00;0.00;;;;;;;;;;6200214;23;20016;-87
2023/09/05 14:33:47;;;;;;;0.10;0.10;;;;;;;;;;6200143;23;20382;-86
2023/09/05 14:36:13;;;;;;;0.13;0.13;;;;;;;;;;6200025;23;20026;-87
2023/09/05 14:38:40;;;;;;;0.10;0.10;;;;;;;;;;6199913;23;20027;-87
2023/09/05 14:41:06;;;;;;;0.08;0.08;;;;;;;;;;6225279;23;20016;-85
2023/09/05 14:43:33;;;;;;;0.00;0.00;;;;;;;;;;6225612;23;20016;-87
2023/09/05 14:46:00;;;;;;;0.00;0.00;;;;;;;;;;6199276;23;20023;-87
2023/09/05 14:48:27;;;;;;;0.00;0.00;;;;;;;;;;6200125;23;20023;-87
2023/09/05 14:50:53;;;;;;;0.15;0.15;;;;;;;;;;6175322;23;20077;-87